sensor_id;sensor_type;location;lat;lon;timestamp;P1;durP1;ratioP1;P2;durP2;ratioP2
22565;SDS011;11449;51.330;19.378;2023-05-07T00:02:52;158.10;;;98.30;;
22565;SDS011;11449;51.330;19.378;2023-05-07T00:08:00;181.70;;;106.80;;
22565;SDS011;11449;51.330;19.378;2023-05-07T00:13:08;282.50;;;224.50;;
22565;SDS011;11449;51.330;19.378;2023-05-07T00:18:16;400.70;;;361.20;;
22565;SDS011;11449;51.330;19.378;2023-05-07T00:23:24;390.10;;;352.40;;
22565;SDS011;11449;51.330;19.378;2023-05-07T00:28:32;573.90;;;522.10;;
22565;SDS011;11449;51.330;19.378;2023-05-07T00:33:39;457.00;;;415.30;;
22565;SDS011;11449;51.330;19.378;2023-05-07T00:38:47;358.00;;;323.00;;
22565;SDS011;11449;51.330;19.378;2023-05-07T00:43:55;419.80;;;379.60;;
22565;SDS011;11449;51.330;19.378;2023-05-07T00:49:02;384.20;;;345.40;;
22565;SDS011;11449;51.330;19.378;2023-05-07T00:54:10;521.40;;;475.70;;
22565;SDS011;11449;51.330;19.378;2023-05-07T00:59:18;427.60;;;385.30;;
22565;SDS011;11449;51.330;19.378;2023-05-07T01:04:26;607.50;;;553.10;;
22565;SDS011;11449;51.330;19.378;2023-05-07T01:09:34;541.60;;;489.30;;
22565;SDS011;11449;51.330;19.378;2023-05-07T01:14:43;543.90;;;492.70;;
22565;SDS011;11449;51.330;19.378;2023-05-07T01:19:51;597.00;;;546.30;;
22565;SDS011;11449;51.330;19.378;2023-05-07T01:25:00;570.00;;;519.60;;
22565;SDS011;11449;51.330;19.378;2023-05-07T01:30:09;234.90;;;209.90;;
22565;SDS011;11449;51.330;19.378;2023-05-07T01:35:21;255.60;;;199.40;;
22565;SDS011;11449;51.330;19.378;2023-05-07T01:40:32;213.90;;;187.30;;
22565;SDS011;11449;51.330;19.378;2023-05-07T01:45:42;209.50;;;182.40;;
22565;SDS011;11449;51.330;19.378;2023-05-07T01:50:51;539.50;;;493.00;;
22565;SDS011;11449;51.330;19.378;2023-05-07T01:56:00;307.30;;;275.80;;
22565;SDS011;11449;51.330;19.378;2023-05-07T02:01:09;414.80;;;375.90;;
22565;SDS011;11449;51.330;19.378;2023-05-07T02:06:17;523.10;;;477.10;;
22565;SDS011;11449;51.330;19.378;2023-05-07T02:11:27;391.10;;;352.50;;
22565;SDS011;11449;51.330;19.378;2023-05-07T02:16:35;462.50;;;418.30;;
22565;SDS011;11449;51.330;19.378;2023-05-07T02:21:44;543.20;;;496.20;;
22565;SDS011;11449;51.330;19.378;2023-05-07T02:26:52;608.50;;;557.50;;
22565;SDS011;11449;51.330;19.378;2023-05-07T02:32:00;690.30;;;634.10;;
22565;SDS011;11449;51.330;19.378;2023-05-07T02:37:08;676.20;;;620.70;;
22565;SDS011;11449;51.330;19.378;2023-05-07T02:42:16;636.80;;;583.20;;
22565;SDS011;11449;51.330;19.378;2023-05-07T02:47:24;722.80;;;664.80;;
22565;SDS011;11449;51.330;19.378;2023-05-07T02:52:36;787.00;;;727.20;;
22565;SDS011;11449;51.330;19.378;2023-05-07T02:57:44;738.00;;;679.40;;
22565;SDS011;11449;51.330;19.378;2023-05-07T03:02:51;707.90;;;651.30;;
22565;SDS011;11449;51.330;19.378;2023-05-07T03:07:59;674.50;;;620.60;;
22565;SDS011;11449;51.330;19.378;2023-05-07T03:13:07;569.40;;;519.60;;
22565;SDS011;11449;51.330;19.378;2023-05-07T03:18:15;534.80;;;488.90;;
22565;SDS011;11449;51.330;19.378;2023-05-07T03:23:23;801.80;;;741.70;;
22565;SDS011;11449;51.330;19.378;2023-05-07T03:28:31;772.50;;;713.10;;
22565;SDS011;11449;51.330;19.378;2023-05-07T03:33:53;761.80;;;702.30;;
22565;SDS011;11449;51.330;19.378;2023-05-07T03:39:02;762.60;;;702.50;;
22565;SDS011;11449;51.330;19.378;2023-05-07T03:44:13;366.10;;;330.30;;
22565;SDS011;11449;51.330;19.378;2023-05-07T03:49:21;611.10;;;559.10;;
22565;SDS011;11449;51.330;19.378;2023-05-07T03:54:29;297.90;;;266.00;;
22565;SDS011;11449;51.330;19.378;2023-05-07T03:59:37;559.80;;;510.30;;
22565;SDS011;11449;51.330;19.378;2023-05-07T04:04:45;576.70;;;525.30;;
22565;SDS011;11449;51.330;19.378;2023-05-07T04:09:54;244.20;;;218.20;;
22565;SDS011;11449;51.330;19.378;2023-05-07T04:15:01;293.70;;;235.00;;
22565;SDS011;11449;51.330;19.378;2023-05-07T04:20:10;420.40;;;378.30;;
22565;SDS011;11449;51.330;19.378;2023-05-07T04:25:25;660.50;;;603.20;;
22565;SDS011;11449;51.330;19.378;2023-05-07T04:30:40;331.10;;;297.00;;
22565;SDS011;11449;51.330;19.378;2023-05-07T04:35:49;387.90;;;346.90;;
22565;SDS011;11449;51.330;19.378;2023-05-07T04:40:58;450.50;;;403.60;;
22565;SDS011;11449;51.330;19.378;2023-05-07T04:46:14;375.70;;;336.20;;
22565;SDS011;11449;51.330;19.378;2023-05-07T04:51:22;200.00;;;163.00;;
22565;SDS011;11449;51.330;19.378;2023-05-07T04:56:30;103.40;;;52.80;;
22565;SDS011;11449;51.330;19.378;2023-05-07T05:01:39;99.00;;;52.50;;
22565;SDS011;11449;51.330;19.378;2023-05-07T05:06:47;54.40;;;8.20;;
22565;SDS011;11449;51.330;19.378;2023-05-07T05:11:56;5.40;;;3.90;;
22565;SDS011;11449;51.330;19.378;2023-05-07T05:17:04;8.50;;;4.40;;
22565;SDS011;11449;51.330;19.378;2023-05-07T05:22:12;10.80;;;4.80;;
22565;SDS011;11449;51.330;19.378;2023-05-07T05:27:20;14.20;;;5.30;;
22565;SDS011;11449;51.330;19.378;2023-05-07T05:32:29;11.10;;;4.90;;
22565;SDS011;11449;51.330;19.378;2023-05-07T05:37:37;43.60;;;5.90;;
22565;SDS011;11449;51.330;19.378;2023-05-07T05:42:45;49.20;;;6.50;;
22565;SDS011;11449;51.330;19.378;2023-05-07T05:47:53;60.90;;;16.80;;
22565;SDS011;11449;51.330;19.378;2023-05-07T05:53:05;91.00;;;45.70;;
22565;SDS011;11449;51.330;19.378;2023-05-07T05:58:14;97.00;;;47.70;;
22565;SDS011;11449;51.330;19.378;2023-05-07T06:03:27;140.30;;;89.50;;
22565;SDS011;11449;51.330;19.378;2023-05-07T06:08:36;182.00;;;119.60;;
22565;SDS011;11449;51.330;19.378;2023-05-07T06:13:45;172.60;;;120.10;;
22565;SDS011;11449;51.330;19.378;2023-05-07T06:18:53;150.80;;;110.60;;
22565;SDS011;11449;51.330;19.378;2023-05-07T06:24:00;113.10;;;51.80;;
22565;SDS011;11449;51.330;19.378;2023-05-07T06:29:08;98.80;;;41.80;;
22565;SDS011;11449;51.330;19.378;2023-05-07T06:34:17;98.60;;;55.00;;
22565;SDS011;11449;51.330;19.378;2023-05-07T06:39:26;108.20;;;65.30;;
22565;SDS011;11449;51.330;19.378;2023-05-07T06:44:34;100.30;;;64.30;;
22565;SDS011;11449;51.330;19.378;2023-05-07T06:49:44;108.30;;;64.40;;
22565;SDS011;11449;51.330;19.378;2023-05-07T06:54:53;90.20;;;49.20;;
22565;SDS011;11449;51.330;19.378;2023-05-07T07:00:01;85.30;;;39.50;;
22565;SDS011;11449;51.330;19.378;2023-05-07T07:05:14;105.30;;;35.20;;
22565;SDS011;11449;51.330;19.378;2023-05-07T07:10:22;97.50;;;48.80;;
22565;SDS011;11449;51.330;19.378;2023-05-07T07:15:30;96.70;;;46.30;;
22565;SDS011;11449;51.330;19.378;2023-05-07T07:20:38;60.00;;;11.20;;
22565;SDS011;11449;51.330;19.378;2023-05-07T07:25:46;90.30;;;48.40;;
22565;SDS011;11449;51.330;19.378;2023-05-07T07:30:55;81.60;;;23.50;;
22565;SDS011;11449;51.330;19.378;2023-05-07T07:36:05;70.90;;;22.40;;
22565;SDS011;11449;51.330;19.378;2023-05-07T07:41:14;76.20;;;14.90;;
22565;SDS011;11449;51.330;19.378;2023-05-07T07:46:22;75.80;;;13.20;;
22565;SDS011;11449;51.330;19.378;2023-05-07T07:51:31;81.70;;;21.70;;
22565;SDS011;11449;51.330;19.378;2023-05-07T07:56:39;99.90;;;37.30;;
22565;SDS011;11449;51.330;19.378;2023-05-07T08:01:48;103.70;;;42.40;;
22565;SDS011;11449;51.330;19.378;2023-05-07T08:06:58;65.00;;;12.80;;
22565;SDS011;11449;51.330;19.378;2023-05-07T08:12:06;57.30;;;14.90;;
22565;SDS011;11449;51.330;19.378;2023-05-07T08:17:15;47.70;;;13.60;;
22565;SDS011;11449;51.330;19.378;2023-05-07T08:22:24;61.50;;;20.00;;
22565;SDS011;11449;51.330;19.378;2023-05-07T08:27:31;59.10;;;21.10;;
22565;SDS011;11449;51.330;19.378;2023-05-07T08:32:39;67.30;;;22.40;;
22565;SDS011;11449;51.330;19.378;2023-05-07T08:37:47;65.70;;;21.60;;
22565;SDS011;11449;51.330;19.378;2023-05-07T08:42:56;55.00;;;17.40;;
22565;SDS011;11449;51.330;19.378;2023-05-07T08:48:05;55.70;;;9.20;;
22565;SDS011;11449;51.330;19.378;2023-05-07T08:53:18;63.10;;;11.80;;
22565;SDS011;11449;51.330;19.378;2023-05-07T08:58:28;47.50;;;8.90;;
22565;SDS011;11449;51.330;19.378;2023-05-07T09:03:37;57.50;;;11.40;;
22565;SDS011;11449;51.330;19.378;2023-05-07T09:08:49;66.40;;;19.70;;
22565;SDS011;11449;51.330;19.378;2023-05-07T09:14:03;7.50;;;5.70;;
22565;SDS011;11449;51.330;19.378;2023-05-07T09:19:14;14.30;;;6.00;;
22565;SDS011;11449;51.330;19.378;2023-05-07T09:24:21;8.40;;;5.60;;
22565;SDS011;11449;51.330;19.378;2023-05-07T09:29:29;7.80;;;5.40;;
22565;SDS011;11449;51.330;19.378;2023-05-07T09:34:42;10.20;;;6.20;;
22565;SDS011;11449;51.330;19.378;2023-05-07T09:39:51;14.60;;;7.20;;
22565;SDS011;11449;51.330;19.378;2023-05-07T09:44:59;18.80;;;7.90;;
22565;SDS011;11449;51.330;19.378;2023-05-07T09:50:10;18.60;;;7.50;;
22565;SDS011;11449;51.330;19.378;2023-05-07T09:55:22;89.10;;;24.80;;
22565;SDS011;11449;51.330;19.378;2023-05-07T10:00:31;226.70;;;197.10;;
22565;SDS011;11449;51.330;19.378;2023-05-07T10:05:42;4.50;;;3.70;;
22565;SDS011;11449;51.330;19.378;2023-05-07T10:10:53;8.00;;;5.20;;
22565;SDS011;11449;51.330;19.378;2023-05-07T10:16:03;12.60;;;6.30;;
22565;SDS011;11449;51.330;19.378;2023-05-07T10:21:17;7.20;;;5.40;;
22565;SDS011;11449;51.330;19.378;2023-05-07T10:26:30;9.90;;;6.60;;
22565;SDS011;11449;51.330;19.378;2023-05-07T10:37:22;9.20;;;5.40;;
22565;SDS011;11449;51.330;19.378;2023-05-07T10:42:31;7.70;;;5.30;;
22565;SDS011;11449;51.330;19.378;2023-05-07T10:58:31;7.60;;;5.70;;
22565;SDS011;11449;51.330;19.378;2023-05-07T11:04:14;10.90;;;7.50;;
22565;SDS011;11449;51.330;19.378;2023-05-07T11:15:33;10.60;;;6.90;;
22565;SDS011;11449;51.330;19.378;2023-05-07T11:20:46;11.40;;;7.40;;
22565;SDS011;11449;51.330;19.378;2023-05-07T11:26:10;15.10;;;7.60;;
22565;SDS011;11449;51.330;19.378;2023-05-07T11:31:20;12.90;;;7.70;;
22565;SDS011;11449;51.330;19.378;2023-05-07T11:36:32;8.70;;;5.40;;
22565;SDS011;11449;51.330;19.378;2023-05-07T11:41:41;11.10;;;5.30;;
22565;SDS011;11449;51.330;19.378;2023-05-07T11:46:50;7.70;;;5.70;;
22565;SDS011;11449;51.330;19.378;2023-05-07T11:51:58;8.00;;;5.30;;
22565;SDS011;11449;51.330;19.378;2023-05-07T11:57:05;7.00;;;5.80;;
22565;SDS011;11449;51.330;19.378;2023-05-07T12:02:15;9.50;;;6.00;;
22565;SDS011;11449;51.330;19.378;2023-05-07T12:07:23;7.80;;;4.90;;
22565;SDS011;11449;51.330;19.378;2023-05-07T12:12:37;6.40;;;4.80;;
22565;SDS011;11449;51.330;19.378;2023-05-07T12:17:49;7.90;;;5.70;;
22565;SDS011;11449;51.330;19.378;2023-05-07T12:22:57;6.50;;;4.80;;
22565;SDS011;11449;51.330;19.378;2023-05-07T12:28:08;7.70;;;4.80;;
22565;SDS011;11449;51.330;19.378;2023-05-07T12:33:24;7.30;;;5.20;;
22565;SDS011;11449;51.330;19.378;2023-05-07T12:38:36;7.90;;;4.70;;
22565;SDS011;11449;51.330;19.378;2023-05-07T12:43:45;7.10;;;5.70;;
22565;SDS011;11449;51.330;19.378;2023-05-07T12:48:53;6.90;;;5.00;;
22565;SDS011;11449;51.330;19.378;2023-05-07T12:54:01;7.40;;;5.80;;
22565;SDS011;11449;51.330;19.378;2023-05-07T12:59:08;9.20;;;6.50;;
22565;SDS011;11449;51.330;19.378;2023-05-07T13:04:16;8.20;;;6.00;;
22565;SDS011;11449;51.330;19.378;2023-05-07T13:09:24;7.90;;;6.00;;
22565;SDS011;11449;51.330;19.378;2023-05-07T13:14:32;6.40;;;5.40;;
22565;SDS011;11449;51.330;19.378;2023-05-07T13:19:40;5.60;;;4.30;;
22565;SDS011;11449;51.330;19.378;2023-05-07T13:24:47;6.90;;;5.80;;
22565;SDS011;11449;51.330;19.378;2023-05-07T13:29:55;6.80;;;4.50;;
22565;SDS011;11449;51.330;19.378;2023-05-07T13:35:03;25.60;;;13.70;;
22565;SDS011;11449;51.330;19.378;2023-05-07T13:40:11;6.20;;;4.90;;
22565;SDS011;11449;51.330;19.378;2023-05-07T13:45:19;8.20;;;4.80;;
22565;SDS011;11449;51.330;19.378;2023-05-07T13:50:27;6.80;;;5.10;;
22565;SDS011;11449;51.330;19.378;2023-05-07T13:55:37;5.60;;;4.40;;
22565;SDS011;11449;51.330;19.378;2023-05-07T14:00:45;9.30;;;7.00;;
22565;SDS011;11449;51.330;19.378;2023-05-07T14:05:52;7.40;;;3.90;;
22565;SDS011;11449;51.330;19.378;2023-05-07T14:11:00;7.20;;;4.30;;
22565;SDS011;11449;51.330;19.378;2023-05-07T14:16:09;6.70;;;4.30;;
22565;SDS011;11449;51.330;19.378;2023-05-07T14:21:25;6.40;;;4.10;;
22565;SDS011;11449;51.330;19.378;2023-05-07T14:26:33;5.50;;;4.40;;
22565;SDS011;11449;51.330;19.378;2023-05-07T14:31:40;7.40;;;5.00;;
22565;SDS011;11449;51.330;19.378;2023-05-07T14:36:48;8.10;;;5.50;;
22565;SDS011;11449;51.330;19.378;2023-05-07T14:41:56;10.50;;;5.40;;
22565;SDS011;11449;51.330;19.378;2023-05-07T14:47:04;8.20;;;5.40;;
22565;SDS011;11449;51.330;19.378;2023-05-07T14:52:12;7.20;;;4.50;;
22565;SDS011;11449;51.330;19.378;2023-05-07T14:57:20;7.50;;;4.70;;
22565;SDS011;11449;51.330;19.378;2023-05-07T15:02:28;5.80;;;4.30;;
22565;SDS011;11449;51.330;19.378;2023-05-07T15:07:36;5.80;;;4.20;;
22565;SDS011;11449;51.330;19.378;2023-05-07T15:12:44;5.50;;;4.70;;
22565;SDS011;11449;51.330;19.378;2023-05-07T15:17:52;7.70;;;4.20;;
22565;SDS011;11449;51.330;19.378;2023-05-07T15:22:59;7.20;;;5.80;;
22565;SDS011;11449;51.330;19.378;2023-05-07T15:28:07;9.30;;;6.30;;
22565;SDS011;11449;51.330;19.378;2023-05-07T15:33:15;6.30;;;4.40;;
22565;SDS011;11449;51.330;19.378;2023-05-07T15:38:18;5.20;;;3.60;;
22565;SDS011;11449;51.330;19.378;2023-05-07T15:43:26;5.20;;;3.90;;
22565;SDS011;11449;51.330;19.378;2023-05-07T15:48:28;8.70;;;4.60;;
22565;SDS011;11449;51.330;19.378;2023-05-07T15:53:36;8.90;;;5.40;;
22565;SDS011;11449;51.330;19.378;2023-05-07T15:58:44;8.00;;;4.60;;
22565;SDS011;11449;51.330;19.378;2023-05-07T16:03:52;8.30;;;4.20;;
22565;SDS011;11449;51.330;19.378;2023-05-07T16:09:00;11.70;;;7.40;;
22565;SDS011;11449;51.330;19.378;2023-05-07T16:14:08;8.40;;;5.30;;
22565;SDS011;11449;51.330;19.378;2023-05-07T16:19:16;4.90;;;4.10;;
22565;SDS011;11449;51.330;19.378;2023-05-07T16:24:24;8.50;;;3.90;;
22565;SDS011;11449;51.330;19.378;2023-05-07T16:29:32;4.20;;;3.40;;
22565;SDS011;11449;51.330;19.378;2023-05-07T16:34:40;8.70;;;4.10;;
22565;SDS011;11449;51.330;19.378;2023-05-07T16:39:48;5.30;;;3.50;;
22565;SDS011;11449;51.330;19.378;2023-05-07T16:44:55;7.90;;;5.30;;
22565;SDS011;11449;51.330;19.378;2023-05-07T16:50:03;6.80;;;5.30;;
22565;SDS011;11449;51.330;19.378;2023-05-07T16:55:12;7.50;;;5.60;;
22565;SDS011;11449;51.330;19.378;2023-05-07T17:00:20;7.00;;;4.90;;
22565;SDS011;11449;51.330;19.378;2023-05-07T17:05:27;8.60;;;6.10;;
22565;SDS011;11449;51.330;19.378;2023-05-07T17:10:36;13.00;;;8.90;;
22565;SDS011;11449;51.330;19.378;2023-05-07T17:15:43;10.20;;;6.00;;
22565;SDS011;11449;51.330;19.378;2023-05-07T17:20:52;11.20;;;5.80;;
22565;SDS011;11449;51.330;19.378;2023-05-07T17:26:00;9.80;;;6.40;;
22565;SDS011;11449;51.330;19.378;2023-05-07T17:31:08;14.10;;;7.00;;
22565;SDS011;11449;51.330;19.378;2023-05-07T17:36:16;19.10;;;6.50;;
22565;SDS011;11449;51.330;19.378;2023-05-07T17:41:23;64.10;;;8.80;;
22565;SDS011;11449;51.330;19.378;2023-05-07T17:46:32;242.80;;;195.70;;
22565;SDS011;11449;51.330;19.378;2023-05-07T17:51:39;241.20;;;156.10;;
22565;SDS011;11449;51.330;19.378;2023-05-07T17:56:47;111.40;;;45.50;;
22565;SDS011;11449;51.330;19.378;2023-05-07T18:01:55;75.90;;;18.50;;
22565;SDS011;11449;51.330;19.378;2023-05-07T18:07:03;141.90;;;59.30;;
22565;SDS011;11449;51.330;19.378;2023-05-07T18:12:11;94.70;;;47.80;;
22565;SDS011;11449;51.330;19.378;2023-05-07T18:17:19;126.50;;;52.50;;
22565;SDS011;11449;51.330;19.378;2023-05-07T18:22:26;172.10;;;97.90;;
22565;SDS011;11449;51.330;19.378;2023-05-07T18:27:35;174.50;;;106.40;;
22565;SDS011;11449;51.330;19.378;2023-05-07T18:32:43;106.80;;;45.00;;
22565;SDS011;11449;51.330;19.378;2023-05-07T18:37:48;199.50;;;148.00;;
22565;SDS011;11449;51.330;19.378;2023-05-07T18:42:56;295.70;;;219.80;;
22565;SDS011;11449;51.330;19.378;2023-05-07T18:48:04;372.00;;;336.40;;
22565;SDS011;11449;51.330;19.378;2023-05-07T18:53:15;143.50;;;76.60;;
22565;SDS011;11449;51.330;19.378;2023-05-07T18:58:23;84.40;;;14.30;;
22565;SDS011;11449;51.330;19.378;2023-05-07T19:03:31;103.30;;;41.60;;
22565;SDS011;11449;51.330;19.378;2023-05-07T19:08:39;91.90;;;16.10;;
22565;SDS011;11449;51.330;19.378;2023-05-07T19:13:47;56.20;;;11.50;;
22565;SDS011;11449;51.330;19.378;2023-05-07T19:18:55;61.70;;;10.70;;
22565;SDS011;11449;51.330;19.378;2023-05-07T19:24:02;83.50;;;16.30;;
22565;SDS011;11449;51.330;19.378;2023-05-07T19:29:10;72.00;;;13.30;;
22565;SDS011;11449;51.330;19.378;2023-05-07T19:34:18;86.90;;;14.80;;
22565;SDS011;11449;51.330;19.378;2023-05-07T19:39:26;80.00;;;13.30;;
22565;SDS011;11449;51.330;19.378;2023-05-07T19:44:35;69.30;;;12.80;;
22565;SDS011;11449;51.330;19.378;2023-05-07T19:49:38;59.00;;;11.60;;
22565;SDS011;11449;51.330;19.378;2023-05-07T19:54:46;104.70;;;16.30;;
22565;SDS011;11449;51.330;19.378;2023-05-07T19:59:54;73.20;;;17.90;;
22565;SDS011;11449;51.330;19.378;2023-05-07T20:05:02;69.10;;;15.80;;
22565;SDS011;11449;51.330;19.378;2023-05-07T20:10:10;87.80;;;19.50;;
22565;SDS011;11449;51.330;19.378;2023-05-07T20:15:17;152.90;;;32.70;;
22565;SDS011;11449;51.330;19.378;2023-05-07T20:20:26;93.70;;;25.20;;
22565;SDS011;11449;51.330;19.378;2023-05-07T20:25:33;83.40;;;25.20;;
22565;SDS011;11449;51.330;19.378;2023-05-07T20:30:41;83.50;;;21.80;;
22565;SDS011;11449;51.330;19.378;2023-05-07T20:35:49;88.80;;;23.50;;
22565;SDS011;11449;51.330;19.378;2023-05-07T20:40:57;67.20;;;23.10;;
22565;SDS011;11449;51.330;19.378;2023-05-07T20:46:05;97.80;;;27.60;;
22565;SDS011;11449;51.330;19.378;2023-05-07T20:51:14;88.70;;;21.90;;
22565;SDS011;11449;51.330;19.378;2023-05-07T20:56:22;150.60;;;23.60;;
22565;SDS011;11449;51.330;19.378;2023-05-07T21:01:30;93.20;;;21.70;;
22565;SDS011;11449;51.330;19.378;2023-05-07T21:06:37;77.20;;;20.10;;
22565;SDS011;11449;51.330;19.378;2023-05-07T21:11:46;99.80;;;23.00;;
22565;SDS011;11449;51.330;19.378;2023-05-07T21:16:53;113.40;;;29.50;;
22565;SDS011;11449;51.330;19.378;2023-05-07T21:22:01;165.00;;;41.30;;
22565;SDS011;11449;51.330;19.378;2023-05-07T21:27:09;190.30;;;57.90;;
22565;SDS011;11449;51.330;19.378;2023-05-07T21:32:17;147.10;;;54.40;;
22565;SDS011;11449;51.330;19.378;2023-05-07T21:37:24;142.20;;;37.70;;
22565;SDS011;11449;51.330;19.378;2023-05-07T21:42:32;118.40;;;28.80;;
22565;SDS011;11449;51.330;19.378;2023-05-07T21:47:40;137.70;;;39.20;;
22565;SDS011;11449;51.330;19.378;2023-05-07T21:52:48;131.20;;;30.80;;
22565;SDS011;11449;51.330;19.378;2023-05-07T21:57:56;169.00;;;56.80;;
22565;SDS011;11449;51.330;19.378;2023-05-07T22:03:04;163.00;;;68.80;;
22565;SDS011;11449;51.330;19.378;2023-05-07T22:08:12;190.30;;;91.20;;
22565;SDS011;11449;51.330;19.378;2023-05-07T22:13:19;181.50;;;81.10;;
22565;SDS011;11449;51.330;19.378;2023-05-07T22:18:27;297.60;;;178.90;;
22565;SDS011;11449;51.330;19.378;2023-05-07T22:23:35;487.40;;;394.30;;
22565;SDS011;11449;51.330;19.378;2023-05-07T22:28:43;484.60;;;402.90;;
22565;SDS011;11449;51.330;19.378;2023-05-07T22:33:51;214.90;;;103.40;;
22565;SDS011;11449;51.330;19.378;2023-05-07T22:38:59;270.10;;;158.40;;
22565;SDS011;11449;51.330;19.378;2023-05-07T22:44:07;396.70;;;336.30;;
22565;SDS011;11449;51.330;19.378;2023-05-07T22:49:14;179.50;;;45.40;;
22565;SDS011;11449;51.330;19.378;2023-05-07T22:54:22;168.50;;;40.30;;
22565;SDS011;11449;51.330;19.378;2023-05-07T22:59:30;136.90;;;31.60;;
22565;SDS011;11449;51.330;19.378;2023-05-07T23:04:38;226.60;;;93.80;;
22565;SDS011;11449;51.330;19.378;2023-05-07T23:09:45;268.10;;;131.50;;
22565;SDS011;11449;51.330;19.378;2023-05-07T23:14:53;284.50;;;145.40;;
22565;SDS011;11449;51.330;19.378;2023-05-07T23:20:01;284.70;;;123.90;;
22565;SDS011;11449;51.330;19.378;2023-05-07T23:25:09;316.90;;;147.60;;
22565;SDS011;11449;51.330;19.378;2023-05-07T23:30:17;314.60;;;194.80;;
22565;SDS011;11449;51.330;19.378;2023-05-07T23:35:25;255.00;;;136.40;;
22565;SDS011;11449;51.330;19.378;2023-05-07T23:40:33;157.40;;;73.10;;
22565;SDS011;11449;51.330;19.378;2023-05-07T23:45:41;207.10;;;107.60;;
22565;SDS011;11449;51.330;19.378;2023-05-07T23:50:50;209.70;;;102.80;;
22565;SDS011;11449;51.330;19.378;2023-05-07T23:55:58;256.30;;;137.80;;
